Time;durP1;ratioP1;P1;durP2;ratioP2;P2;SDS_P1;SDS_P2;PMS_P1;PMS_P2;Temp;Humidity;BMP_temperature;BMP_pressure;BME280_temperature;BME280_humidity;BME280_pressure;Samples;Min_cycle;Max_cycle;Signal;HPM_P1;HPM_P2
2024/04/05 00:01:42;;;;;;;5.83;1.87;;;;;;;17.30;57.95;100775.47;10437122;28;20025;-60
2024/04/05 00:06:42;;;;;;;5.37;1.97;;;;;;;17.30;57.27;100772.78;10437483;28;20275;-61
2024/04/05 00:11:42;;;;;;;5.30;2.00;;;;;;;17.32;58.27;100775.97;10455020;28;20295;-60
2024/04/05 00:16:43;;;;;;;4.80;2.13;;;;;;;17.32;58.34;100771.41;10454800;28;20303;-60
2024/04/05 00:21:43;;;;;;;8.25;2.28;;;;;;;17.31;57.61;100774.38;10454172;28;20743;-61
2024/04/05 00:26:43;;;;;;;5.00;2.13;;;;;;;17.30;57.24;100778.16;10454315;28;20033;-60
2024/04/05 00:31:44;;;;;;;6.07;2.17;;;;;;;17.27;58.11;100774.13;10453951;28;20306;-60
2024/04/05 00:36:44;;;;;;;5.43;2.20;;;;;;;17.26;57.85;100767.19;10453996;28;20366;-60
2024/04/05 00:41:44;;;;;;;6.50;2.77;;;;;;;17.27;57.02;100768.78;10435851;28;20376;-61
2024/04/05 00:46:45;;;;;;;7.17;2.67;;;;;;;17.27;58.10;100768.78;10453724;28;20291;-60
2024/04/05 00:51:45;;;;;;;4.80;1.80;;;;;;;17.25;57.73;100771.75;10452957;28;20287;-60
2024/04/05 00:56:47;;;;;;;4.63;2.08;;;;;;;17.24;58.02;100786.22;10435300;28;20105;-60
2024/04/05 01:01:47;;;;;;;6.00;2.03;;;;;;;17.22;57.12;100793.75;10434331;28;20017;-60
2024/04/05 01:06:48;;;;;;;6.10;2.20;;;;;;;17.22;57.11;100787.59;10451991;28;20031;-60
2024/04/05 01:11:55;;;;;;;6.95;2.63;;;;;;;17.28;58.46;100774.94;10434543;28;20028;-60
2024/04/05 01:16:56;;;;;;;4.55;1.80;;;;;;;17.26;57.48;100777.91;10452599;28;20037;-60
2024/04/05 01:21:56;;;;;;;5.57;2.63;;;;;;;17.24;58.64;100780.06;10451942;28;20021;-60
2024/04/05 01:26:56;;;;;;;5.10;1.83;;;;;;;17.23;57.79;100778.47;10434378;28;20669;-60
2024/04/05 01:31:57;;;;;;;6.53;3.50;;;;;;;17.23;58.50;100767.75;10451284;28;20082;-60
2024/04/05 01:36:58;;;;;;;5.33;2.07;;;;;;;17.23;58.34;100768.56;10451648;28;20846;-60
2024/04/05 01:41:58;;;;;;;5.88;3.05;;;;;;;17.27;57.61;100763.41;10451016;28;20271;-61
2024/04/05 01:46:58;;;;;;;8.13;3.03;;;;;;;17.33;57.98;100764.16;10451361;28;20512;-60
2024/04/05 01:51:59;;;;;;;5.87;2.17;;;;;;;17.32;58.21;100765.25;10433047;28;20294;-60
2024/04/05 01:56:59;;;;;;;7.40;2.03;;;;;;;17.30;58.10;100754.81;10451392;28;20425;-60
2024/04/05 02:01:59;;;;;;;6.13;2.10;;;;;;;17.30;57.64;100757.50;10450719;28;20367;-60
2024/04/05 02:07:00;;;;;;;5.10;1.83;;;;;;;17.28;58.17;100732.84;10450877;28;20325;-60
2024/04/05 02:12:00;;;;;;;3.27;2.30;;;;;;;17.32;58.41;100741.94;10449025;28;20378;-60
2024/04/05 02:17:01;;;;;;;7.20;2.28;;;;;;;17.32;57.82;100736.56;10450282;28;20267;-61
2024/04/05 02:22:01;;;;;;;6.33;2.37;;;;;;;17.30;58.21;100741.44;10450180;28;20124;-60
2024/04/05 02:27:02;;;;;;;5.03;2.10;;;;;;;17.29;57.53;100750.56;10450350;28;20604;-60
2024/04/05 02:32:02;;;;;;;5.63;2.20;;;;;;;17.32;58.37;100757.22;10449798;28;20094;-60
2024/04/05 02:37:03;;;;;;;5.35;2.15;;;;;;;17.32;57.61;100758.00;10450269;28;20028;-60
2024/04/05 02:42:03;;;;;;;5.47;2.40;;;;;;;17.32;58.64;100760.69;10449876;28;20025;-60
2024/04/05 02:47:04;;;;;;;4.13;1.77;;;;;;;17.30;58.33;100754.81;10431405;28;20069;-60
2024/04/05 02:52:04;;;;;;;4.63;1.97;;;;;;;17.30;57.84;100752.16;10449921;28;20806;-61
2024/04/05 02:57:04;;;;;;;3.70;1.88;;;;;;;17.34;58.29;100753.16;10448862;28;20328;-60
2024/04/05 03:02:05;;;;;;;6.20;1.80;;;;;;;17.32;57.50;100770.63;10449438;28;20476;-60
2024/04/05 03:07:05;;;;;;;7.67;1.90;;;;;;;17.30;57.38;100765.53;10449012;28;20283;-60
2024/04/05 03:12:05;;;;;;;5.97;2.10;;;;;;;17.30;58.10;100768.22;10430965;28;20706;-60
2024/04/05 03:17:07;;;;;;;9.75;2.55;;;;;;;17.34;57.90;100763.88;10448907;28;20283;-61
2024/04/05 03:22:08;;;;;;;4.70;1.65;;;;;;;17.36;57.61;100752.88;10452748;28;20483;-60
2024/04/05 03:27:08;;;;;;;4.13;2.28;;;;;;;17.35;57.36;100741.34;10456827;28;20024;-61
2024/04/05 03:32:09;;;;;;;8.00;2.50;;;;;;;17.35;58.25;100744.03;10456741;28;20024;-61
2024/04/05 03:37:09;;;;;;;7.20;2.25;;;;;;;17.32;57.59;100741.94;10455864;28;20768;-60
2024/04/05 03:42:10;;;;;;;5.33;2.17;;;;;;;17.29;57.71;100739.84;10456372;28;20021;-60
2024/04/05 03:47:10;;;;;;;5.80;2.50;;;;;;;17.25;57.87;100734.22;10455668;28;20766;-60
2024/04/05 03:52:10;;;;;;;5.87;1.77;;;;;;;17.23;58.69;100733.72;10455878;28;20295;-61
2024/04/05 03:57:10;;;;;;;4.63;2.27;;;;;;;17.28;57.72;100727.50;10455529;28;20334;-61
2024/04/05 04:02:11;;;;;;;4.47;2.27;;;;;;;17.27;58.05;100738.50;10455378;28;20290;-60
2024/04/05 04:07:11;;;;;;;6.95;3.13;;;;;;;17.25;57.21;100739.59;10453876;28;20297;-60
2024/04/05 04:12:13;;;;;;;5.97;2.22;;;;;;;17.23;57.12;100739.06;10454595;28;20041;-60
2024/04/05 04:17:13;;;;;;;8.02;2.22;;;;;;;17.20;58.60;100715.53;10436951;28;20040;-60
2024/04/05 04:22:14;;;;;;;7.07;2.23;;;;;;;17.21;58.70;100700.25;10454817;28;20021;-60
2024/04/05 04:27:14;;;;;;;5.38;1.80;;;;;;;17.20;58.41;100685.28;10453915;28;20278;-59
2024/04/05 04:32:15;;;;;;;8.50;2.73;;;;;;;17.22;57.93;100686.56;10450506;28;20033;-60
2024/04/05 04:37:16;;;;;;;6.65;2.03;;;;;;;17.23;57.35;100679.34;10450009;28;20962;-60
2024/04/05 04:42:17;;;;;;;5.13;2.83;;;;;;;17.23;58.18;100684.69;10438032;28;20025;-60
2024/04/05 04:47:17;;;;;;;10.10;4.55;;;;;;;17.24;58.24;100681.72;10443109;28;20021;-60
2024/04/05 04:52:17;;;;;;;6.93;2.37;;;;;;;17.29;57.37;100694.28;10453431;28;20040;-60
2024/04/05 04:57:18;;;;;;;7.33;2.90;;;;;;;17.28;58.47;100683.81;10452988;28;20271;-60
2024/04/05 05:02:18;;;;;;;6.83;2.43;;;;;;;17.28;58.73;100676.56;10434035;28;20272;-60
2024/04/05 05:07:18;;;;;;;9.57;2.90;;;;;;;17.34;59.29;100669.28;10448840;28;20284;-60
2024/04/05 05:12:18;;;;;;;12.17;2.40;;;;;;;17.48;59.35;100659.44;10450909;28;20303;-61
2024/04/05 05:17:19;;;;;;;5.80;2.35;;;;;;;17.48;58.86;100643.34;10452052;28;20271;-61
2024/04/05 05:22:19;;;;;;;11.37;3.03;;;;;;;17.45;58.91;100649.31;10452708;28;20040;-61
2024/04/05 05:27:20;;;;;;;12.25;3.55;;;;;;;17.42;59.10;100661.41;10433952;28;20278;-61
2024/04/05 05:32:20;;;;;;;7.15;2.63;;;;;;;17.42;59.24;100642.66;10451737;28;20044;-60
2024/04/05 05:37:21;;;;;;;15.23;4.23;;;;;;;17.34;59.64;100637.91;10451746;28;20029;-59
2024/04/05 05:42:22;;;;;;;27.42;4.55;;;;;;;17.36;59.19;100649.16;10451646;28;20279;-59
2024/04/05 05:47:22;;;;;;;45.63;8.32;;;;;;;17.48;59.84;100656.75;10450341;28;20029;-62
2024/04/05 05:52:22;;;;;;;74.70;11.53;;;;;;;17.46;60.53;100629.44;10449426;28;20040;-62
2024/04/05 05:57:23;;;;;;;59.80;10.70;;;;;;;17.46;60.25;100630.25;10448629;28;20329;-60
2024/04/05 06:02:23;;;;;;;39.33;8.20;;;;;;;17.46;60.25;100599.97;10450126;28;20857;-61
2024/04/05 06:07:23;;;;;;;41.40;9.20;;;;;;;17.39;59.37;100594.94;10449892;28;20452;-60
2024/04/05 06:12:24;;;;;;;40.23;7.97;;;;;;;17.34;59.76;100587.00;10446130;28;20304;-60
2024/04/05 06:17:25;;;;;;;29.48;6.53;;;;;;;17.34;59.33;100578.16;10403423;28;20272;-61
2024/04/05 06:22:30;;;;;;;32.15;6.97;;;;;;;17.30;60.14;100561.09;10368452;28;20021;-61
2024/04/05 06:27:31;;;;;;;36.72;7.50;;;;;;;17.28;60.30;100577.44;10367867;28;20088;-61
2024/04/05 06:32:31;;;;;;;35.88;7.20;;;;;;;17.28;59.83;100565.91;10367473;28;20105;-61
2024/04/05 06:37:33;;;;;;;20.80;5.93;;;;;;;17.24;59.13;100565.69;10367547;28;20074;-61
2024/04/05 06:42:33;;;;;;;24.88;5.05;;;;;;;17.23;60.03;100551.50;10350340;28;20352;-61
2024/04/05 06:47:35;;;;;;;17.67;5.10;;;;;;;17.22;60.07;100554.47;10367481;28;20389;-61
2024/04/05 06:52:36;;;;;;;26.42;6.25;;;;;;;17.21;60.04;100552.91;10367866;28;20324;-62
2024/04/05 06:57:38;;;;;;;27.95;6.03;;;;;;;17.21;59.31;100556.38;10371682;28;20025;-61
2024/04/05 07:02:39;;;;;;;19.15;4.80;;;;;;;17.20;59.99;100546.75;10374854;28;20026;-61
2024/04/05 07:07:39;;;;;;;12.10;4.32;;;;;;;17.21;60.49;100539.50;10374659;28;20366;-61
2024/04/05 07:12:42;;;;;;;12.47;5.27;;;;;;;17.21;59.84;100534.94;10374638;28;20052;-61
2024/04/05 07:17:48;;;;;;;22.20;4.82;;;;;;;17.21;59.51;100531.47;10356626;28;20296;-61
2024/04/05 07:22:50;;;;;;;17.27;5.53;;;;;;;17.21;60.07;100521.53;10382321;28;20060;-60
2024/04/05 07:27:54;;;;;;;9.60;3.38;;;;;;;17.25;59.22;100511.03;10382772;28;20025;-61
2024/04/05 07:32:54;;;;;;;19.52;5.40;;;;;;;17.25;60.57;100500.31;10368042;28;20038;-61
2024/04/05 07:37:55;;;;;;;12.40;3.10;;;;;;;17.24;59.52;100488.78;10374140;28;20388;-61
2024/04/05 07:42:55;;;;;;;10.55;3.75;;;;;;;17.23;60.19;100497.13;10369896;28;20348;-61
2024/04/05 07:47:56;;;;;;;10.38;3.70;;;;;;;17.23;60.21;100481.06;10383100;28;20083;-61
2024/04/05 07:52:56;;;;;;;12.47;4.10;;;;;;;17.21;60.47;100484.03;10373431;28;20030;-61
2024/04/05 07:57:57;;;;;;;8.50;3.38;;;;;;;17.21;60.33;100467.16;10373284;28;20707;-61
2024/04/05 08:02:57;;;;;;;12.70;3.67;;;;;;;17.20;60.28;100450.28;10372709;28;20036;-61
2024/04/05 08:07:57;;;;;;;9.90;3.72;;;;;;;17.19;60.24;100454.06;10363753;28;20292;-61
2024/04/05 08:12:58;;;;;;;8.20;3.40;;;;;;;17.21;60.06;100467.94;10390051;28;20072;-61
2024/04/05 08:17:58;;;;;;;10.32;3.38;;;;;;;17.18;59.68;100476.56;10454328;28;20738;-61
2024/04/05 08:22:59;;;;;;;12.13;3.35;;;;;;;17.17;60.28;100458.91;10436553;28;20027;-61
2024/04/05 08:27:59;;;;;;;8.07;2.70;;;;;;;17.19;60.42;100442.53;10454064;28;20032;-61
2024/04/05 08:33:00;;;;;;;6.00;2.72;;;;;;;17.21;59.80;100432.31;10454058;28;20285;-61
2024/04/05 08:38:03;;;;;;;7.30;2.60;;;;;;;17.25;59.98;100411.88;10453664;28;20033;-61
2024/04/05 08:43:05;;;;;;;10.15;3.13;;;;;;;17.22;60.07;100393.72;10452922;28;20051;-61
2024/04/05 08:48:05;;;;;;;11.70;2.65;;;;;;;17.22;59.29;100391.03;10434614;28;20021;-61
2024/04/05 08:53:08;;;;;;;7.10;3.13;;;;;;;17.24;59.27;100380.81;10453048;28;20041;-61
2024/04/05 08:58:08;;;;;;;5.18;1.63;;;;;;;17.24;60.28;100381.63;10452075;28;20027;-61
2024/04/05 09:03:10;;;;;;;7.17;2.90;;;;;;;17.23;59.07;100396.09;10441694;28;20407;-61
2024/04/05 09:08:11;;;;;;;9.18;2.42;;;;;;;17.21;59.34;100449.19;10443713;28;20282;-61
2024/04/05 09:13:12;;;;;;;11.77;2.58;;;;;;;17.20;59.07;100490.47;10452369;28;20485;-61
2024/04/05 09:18:22;;;;;;;5.10;2.20;;;;;;;17.19;59.52;100486.19;10452495;28;20530;-61
2024/04/05 09:23:23;;;;;;;6.70;2.33;;;;;;;17.19;60.79;100462.09;10449855;28;20025;-61
2024/04/05 09:28:23;;;;;;;6.22;2.75;;;;;;;17.22;60.72;100471.41;10450958;28;20491;-61
2024/04/05 09:33:24;;;;;;;4.22;2.20;;;;;;;17.26;58.84;100480.47;10451682;28;20025;-61
2024/04/05 09:38:25;;;;;;;6.93;1.85;;;;;;;17.26;60.71;100469.75;10451264;28;20021;-61
2024/04/05 09:43:25;;;;;;;6.88;2.55;;;;;;;17.25;59.69;100471.63;10451366;28;20035;-61
2024/04/05 09:48:31;;;;;;;5.00;1.97;;;;;;;17.27;59.96;100470.53;10450360;28;20028;-61
2024/04/05 09:53:32;;;;;;;4.70;2.05;;;;;;;17.32;60.43;100457.06;10441196;28;20291;-61
2024/04/05 09:58:33;;;;;;;4.78;1.90;;;;;;;17.36;58.96;100461.53;10418368;28;20021;-61
2024/04/05 10:03:34;;;;;;;3.70;1.23;;;;;;;17.39;60.05;100458.28;10432214;28;20024;-61
2024/04/05 10:08:35;;;;;;;5.30;1.42;;;;;;;17.40;60.15;100461.75;10449258;28;20025;-61
2024/04/05 10:13:36;;;;;;;6.25;1.70;;;;;;;17.37;59.72;100432.84;10449821;28;20118;-60
2024/04/05 10:18:41;;;;;;;5.70;2.55;;;;;;;17.34;59.61;100434.25;10431321;28;20033;-60
2024/04/05 10:23:45;;;;;;;4.35;1.65;;;;;;;17.31;60.22;100418.75;10432391;28;20719;-60
2024/04/05 10:28:45;;;;;;;3.78;1.45;;;;;;;17.30;60.32;100401.09;10449300;28;20028;-60
2024/04/05 10:33:45;;;;;;;5.10;2.27;;;;;;;17.27;60.09;100416.94;10448712;28;20456;-61
2024/04/05 10:38:46;;;;;;;3.60;1.60;;;;;;;17.25;60.61;100414.56;10447951;28;20362;-61
2024/04/05 10:43:46;;;;;;;4.57;2.03;;;;;;;17.22;60.22;100399.88;10449938;28;20355;-61
2024/04/05 10:48:56;;;;;;;4.45;1.60;;;;;;;17.22;60.27;100389.16;10449630;28;20498;-61
2024/04/05 10:54:16;;;;;;;;;;;;;;;17.21;60.09;100379.53;10439915;28;20032;-61
2024/04/05 10:59:18;;;;;;;3.30;1.30;;;;;;;17.21;59.76;100374.16;10435724;28;19959;-61
2024/04/05 11:04:23;;;;;;;3.60;1.35;;;;;;;17.19;61.41;100368.31;10449614;28;20020;-61
2024/04/05 11:09:35;;;;;;;4.40;1.40;;;;;;;17.17;60.29;100386.56;10440057;28;20029;-61
2024/04/05 11:14:35;;;;;;;2.97;1.58;;;;;;;17.16;60.74;100379.59;10423876;28;20040;-60
2024/04/05 11:19:36;;;;;;;5.30;1.10;;;;;;;17.16;61.68;100376.91;10448896;28;20426;-60
2024/04/05 11:24:36;;;;;;;2.53;1.30;;;;;;;17.15;60.96;100380.69;10448935;28;20275;-60
2024/04/05 11:29:39;;;;;;;4.23;1.23;;;;;;;17.15;60.71;100379.91;10448418;28;20295;-60
2024/04/05 11:34:39;;;;;;;1.80;0.85;;;;;;;17.15;60.65;100374.53;10448571;28;20311;-60
2024/04/05 11:39:42;;;;;;;2.77;1.23;;;;;;;17.14;60.03;100389.81;10447447;28;20100;-61
2024/04/05 11:44:42;;;;;;;4.45;1.65;;;;;;;17.15;60.58;100395.97;10454456;28;20327;-61
2024/04/05 11:49:42;;;;;;;4.03;1.10;;;;;;;17.15;61.01;100420.09;10454279;28;20911;-61
2024/04/05 11:54:43;;;;;;;3.10;1.27;;;;;;;17.17;61.17;100412.56;10454128;28;20102;-60
2024/04/05 11:59:44;;;;;;;3.05;1.35;;;;;;;17.16;60.43;100429.72;10443478;28;20306;-61
2024/04/05 12:04:46;;;;;;;5.15;1.70;;;;;;;17.15;60.28;100420.88;10454809;28;20028;-61
2024/04/05 12:09:47;;;;;;;5.55;1.42;;;;;;;17.17;60.59;100431.31;10453463;28;20025;-61
2024/04/05 12:14:47;;;;;;;3.47;1.53;;;;;;;17.17;60.89;100432.13;10453697;28;20049;-60
2024/04/05 12:19:48;;;;;;;6.53;1.83;;;;;;;17.17;60.65;100440.16;10454621;28;20279;-59
2024/04/05 12:24:48;;;;;;;7.57;1.67;;;;;;;17.21;61.70;100464.47;10454447;28;20279;-59
2024/04/05 12:29:49;;;;;;;15.10;2.33;;;;;;;17.36;61.51;100491.03;10453633;28;20075;-60
2024/04/05 12:34:49;;;;;;;10.32;2.08;;;;;;;17.50;61.42;100504.47;10453541;28;20111;-60
2024/04/05 12:39:50;;;;;;;11.02;2.42;;;;;;;17.53;61.78;100507.38;10452881;28;20021;-60
2024/04/05 12:44:51;;;;;;;16.60;3.70;;;;;;;17.54;61.78;100479.47;10452930;28;20511;-61
2024/04/05 12:49:51;;;;;;;20.48;3.78;;;;;;;17.60;61.53;100480.16;10452742;28;20048;-60
2024/04/05 12:54:52;;;;;;;13.63;3.47;;;;;;;17.48;61.61;100487.88;10451894;28;20033;-61
2024/04/05 12:59:52;;;;;;;15.20;3.17;;;;;;;17.43;61.19;100475.38;10451974;28;20191;-60
2024/04/05 13:04:52;;;;;;;13.63;3.20;;;;;;;17.38;62.92;100490.72;10434497;28;20307;-60
2024/04/05 13:09:53;;;;;;;11.73;3.30;;;;;;;17.36;62.14;100490.22;10436889;28;20037;-61
2024/04/05 13:14:53;;;;;;;12.85;2.70;;;;;;;17.32;62.51;100511.47;10449341;28;20881;-60
2024/04/05 13:19:54;;;;;;;12.45;3.85;;;;;;;17.30;62.10;100497.56;10452595;28;20021;-61
2024/04/05 13:24:54;;;;;;;12.43;2.80;;;;;;;17.29;62.51;100521.97;10434250;28;20063;-60
2024/04/05 13:29:54;;;;;;;10.03;2.53;;;;;;;17.26;62.28;100515.28;10452100;28;20028;-60
2024/04/05 13:34:55;;;;;;;10.47;2.10;;;;;;;17.22;62.69;100522.34;10451914;28;20663;-60
2024/04/05 13:39:55;;;;;;;10.30;2.40;;;;;;;17.21;62.43;100534.94;10451805;28;20310;-60
2024/04/05 13:44:55;;;;;;;9.20;2.65;;;;;;;17.30;61.16;100531.59;10449907;28;20733;-61
2024/04/05 13:49:56;;;;;;;9.05;2.30;;;;;;;17.24;61.73;100541.59;10450622;28;20434;-61
2024/04/05 13:54:56;;;;;;;11.87;2.67;;;;;;;17.19;61.18;100547.81;10449707;28;20139;-60
2024/04/05 13:59:56;;;;;;;9.40;1.90;;;;;;;17.18;62.58;100540.09;10449621;28;20275;-61
2024/04/05 14:05:00;;;;;;;15.03;2.73;;;;;;;17.22;62.22;100533.84;10449249;28;20287;-60
2024/04/05 14:10:01;;;;;;;6.50;2.22;;;;;;;17.28;61.37;100528.41;10433056;28;20961;-60
2024/04/05 14:15:02;;;;;;;13.25;2.63;;;;;;;17.30;61.38;100540.44;10423069;28;20045;-60
2024/04/05 14:20:07;;;;;;;7.53;2.47;;;;;;;17.30;61.51;100545.81;10408081;28;20060;-61
2024/04/05 14:25:09;;;;;;;7.20;2.08;;;;;;;17.30;61.49;100550.38;10408796;28;20104;-61
2024/04/05 14:30:11;;;;;;;7.65;1.75;;;;;;;17.33;61.80;100542.53;10418192;28;20591;-60
2024/04/05 14:35:11;;;;;;;5.85;1.80;;;;;;;17.36;60.87;100539.25;10416064;28;20017;-60
2024/04/05 14:40:11;;;;;;;5.87;1.87;;;;;;;17.43;61.86;100545.06;10408804;28;20021;-60
2024/04/05 14:45:12;;;;;;;7.68;1.80;;;;;;;17.50;61.29;100544.66;10407896;28;20613;-61
2024/04/05 14:50:12;;;;;;;4.65;1.98;;;;;;;17.55;61.13;100547.28;10410884;28;20034;-61
2024/04/05 14:55:13;;;;;;;5.27;1.40;;;;;;;17.53;60.81;100566.34;10408094;28;20080;-60
2024/04/05 15:00:14;;;;;;;4.22;1.35;;;;;;;17.54;60.97;100564.47;10408418;28;20336;-59
2024/04/05 15:05:15;;;;;;;6.15;1.70;;;;;;;17.56;61.78;100574.91;10410718;28;20473;-60
2024/04/05 15:10:15;;;;;;;4.40;1.70;;;;;;;17.47;61.55;100578.22;10406801;28;20133;-60
2024/04/05 15:15:15;;;;;;;3.13;1.27;;;;;;;17.43;61.76;100592.50;10406629;28;20049;-60
2024/04/05 15:20:16;;;;;;;3.42;1.42;;;;;;;17.38;61.92;100597.94;10413938;28;20307;-61
2024/04/05 15:25:19;;;;;;;8.85;2.38;;;;;;;17.40;61.84;100615.31;10414530;28;20029;-60
2024/04/05 15:30:19;;;;;;;7.32;2.03;;;;;;;17.47;61.09;100609.59;10414643;28;20432;-61
2024/04/05 15:35:19;;;;;;;18.23;2.63;;;;;;;17.50;62.21;100628.56;10422258;28;20083;-61
2024/04/05 15:40:22;;;;;;;13.20;2.83;;;;;;;17.53;61.58;100625.34;10414759;28;20787;-62
2024/04/05 15:45:22;;;;;;;16.67;2.47;;;;;;;17.57;61.23;100640.81;10401554;28;20955;-62
2024/04/05 15:50:22;;;;;;;11.07;3.13;;;;;;;17.59;61.71;100638.66;10414271;28;20018;-62
2024/04/05 15:55:23;;;;;;;9.90;2.77;;;;;;;17.57;61.84;100638.94;10388894;28;20802;-62
2024/04/05 16:00:23;;;;;;;6.07;2.10;;;;;;;17.55;61.77;100646.47;10366357;28;20279;-62
2024/04/05 16:05:23;;;;;;;9.63;2.57;;;;;;;17.54;61.26;100650.25;10422103;28;20627;-61
2024/04/05 16:10:24;;;;;;;9.23;2.83;;;;;;;17.54;61.81;100651.06;10410358;28;20387;-61
2024/04/05 16:15:25;;;;;;;7.38;1.90;;;;;;;17.54;61.23;100655.63;10400646;28;20347;-61
2024/04/05 16:20:27;;;;;;;9.40;2.88;;;;;;;17.65;63.95;100661.63;10402333;28;20009;-61
2024/04/05 16:25:27;;;;;;;6.88;2.38;;;;;;;17.88;64.00;100663.47;10412761;28;20025;-62
2024/04/05 16:30:29;;;;;;;15.20;3.47;;;;;;;17.94;63.28;100675.69;10412027;28;20033;-62
2024/04/05 16:35:29;;;;;;;8.75;2.60;;;;;;;18.01;63.42;100680.72;10422492;28;20734;-61
2024/04/05 16:40:30;;;;;;;9.93;3.07;;;;;;;18.04;62.56;100685.47;10420289;28;20067;-60
2024/04/05 16:45:30;;;;;;;7.88;3.47;;;;;;;18.05;62.42;100700.47;10411850;28;20031;-59
2024/04/05 16:50:31;;;;;;;19.42;3.17;;;;;;;17.92;62.09;100693.19;10411980;28;20029;-59
2024/04/05 16:55:32;;;;;;;11.05;3.08;;;;;;;18.07;62.45;100704.47;10411695;28;20025;-60
2024/04/05 17:00:37;;;;;;;12.15;2.75;;;;;;;18.06;63.33;100712.81;10411925;28;20025;-60
2024/04/05 17:05:38;;;;;;;11.13;2.92;;;;;;;17.96;63.18;100723.69;10410349;28;20087;-60
2024/04/05 17:10:44;;;;;;;10.13;2.58;;;;;;;17.79;62.75;100729.56;10411206;28;20105;-60
2024/04/05 17:15:44;;;;;;;12.05;2.38;;;;;;;17.69;63.53;100737.75;10387318;28;20478;-60
2024/04/05 17:20:44;;;;;;;11.55;3.40;;;;;;;17.64;62.89;100740.44;10370177;28;20060;-60
2024/04/05 17:25:45;;;;;;;8.17;3.67;;;;;;;17.60;63.17;100742.91;10365916;28;20018;-61
2024/04/05 17:30:47;;;;;;;7.83;2.53;;;;;;;17.62;62.12;100748.00;10369702;28;20297;-59
2024/04/05 17:35:48;;;;;;;10.65;2.75;;;;;;;17.78;63.00;100758.28;10372718;28;20278;-59
2024/04/05 17:40:48;;;;;;;7.03;2.83;;;;;;;17.73;63.61;100766.38;10367852;28;20100;-59
2024/04/05 17:45:49;;;;;;;6.83;2.27;;;;;;;17.84;63.17;100759.00;10369069;28;20030;-59
2024/04/05 17:50:49;;;;;;;10.33;3.37;;;;;;;17.98;62.10;100784.00;10369387;28;20296;-59
2024/04/05 17:55:51;;;;;;;8.10;2.40;;;;;;;18.07;62.69;100782.28;10368559;28;20264;-61
2024/04/05 18:00:51;;;;;;;7.32;2.58;;;;;;;18.00;62.58;100783.75;10368899;28;20275;-60
2024/04/05 18:05:52;;;;;;;13.10;4.18;;;;;;;17.99;62.80;100801.69;10368094;28;20109;-60
2024/04/05 18:10:52;;;;;;;7.97;3.33;;;;;;;17.99;64.81;100806.25;10368086;28;20034;-60
2024/04/05 18:15:52;;;;;;;9.73;3.37;;;;;;;18.06;65.20;100804.03;10373338;28;20392;-60
2024/04/05 18:20:53;;;;;;;6.83;2.80;;;;;;;18.00;63.96;100808.69;10374048;28;20289;-59
2024/04/05 18:25:54;;;;;;;5.37;2.40;;;;;;;18.09;63.49;100816.88;10402841;28;20337;-59
2024/04/05 18:30:55;;;;;;;7.60;2.15;;;;;;;18.09;63.07;100812.28;10399578;28;20720;-60
2024/04/05 18:36:01;;;;;;;8.40;3.00;;;;;;;18.08;62.84;100816.06;10387899;28;20124;-61
2024/04/05 18:41:01;;;;;;;5.95;2.83;;;;;;;18.05;63.60;100819.34;10393931;28;20971;-63
2024/04/05 18:46:03;;;;;;;6.50;2.50;;;;;;;17.93;62.61;100829.69;10408359;28;20049;-62
2024/04/05 18:51:03;;;;;;;5.10;2.40;;;;;;;17.87;62.38;100838.06;10407220;28;20060;-62
2024/04/05 18:56:04;;;;;;;7.82;2.78;;;;;;;17.83;62.96;100844.03;10405326;28;20029;-62
2024/04/05 19:01:04;;;;;;;7.05;2.78;;;;;;;17.83;62.54;100849.38;10397724;28;20045;-63
2024/04/05 19:06:10;;;;;;;6.50;2.33;;;;;;;17.83;62.34;100857.44;10434170;28;20507;-63
2024/04/05 19:11:11;;;;;;;7.68;3.17;;;;;;;17.85;62.58;100872.44;10415929;28;20346;-63
2024/04/05 19:16:13;;;;;;;7.63;2.33;;;;;;;17.85;62.71;100883.97;10416025;28;20411;-62
2024/04/05 19:21:13;;;;;;;7.32;2.40;;;;;;;17.85;63.10;100883.16;10414540;28;20724;-62
2024/04/05 19:26:13;;;;;;;5.10;1.90;;;;;;;17.85;62.93;100875.13;10415355;28;20048;-63
2024/04/05 19:31:15;;;;;;;6.45;2.58;;;;;;;17.83;62.56;100881.59;10419455;28;20709;-63
2024/04/05 19:36:17;;;;;;;3.97;2.40;;;;;;;17.79;62.90;100883.25;10417138;28;20036;-62
2024/04/05 19:41:19;;;;;;;7.07;2.38;;;;;;;17.73;62.61;100887.06;10427142;28;20048;-62
2024/04/05 19:46:19;;;;;;;4.68;1.60;;;;;;;17.69;62.53;100883.34;10416330;28;20518;-62
2024/04/05 19:51:22;;;;;;;2.25;1.65;;;;;;;17.68;62.37;100894.34;10414852;28;20165;-63
2024/04/05 19:56:23;;;;;;;4.53;2.70;;;;;;;17.67;62.26;100906.16;10414787;28;20025;-63
2024/04/05 20:01:23;;;;;;;4.37;1.93;;;;;;;17.65;62.51;100901.06;10414675;28;20067;-62
2024/04/05 20:06:24;;;;;;;3.17;1.60;;;;;;;17.64;61.97;100894.13;10412608;28;20818;-62
2024/04/05 20:11:24;;;;;;;4.65;2.10;;;;;;;17.62;62.18;100888.22;10413887;28;20288;-62
2024/04/05 20:16:25;;;;;;;3.30;1.58;;;;;;;17.62;62.26;100895.47;10395883;28;20548;-62
2024/04/05 20:21:25;;;;;;;7.38;2.67;;;;;;;17.61;62.83;100893.88;10413970;28;20025;-63
2024/04/05 20:26:26;;;;;;;3.60;1.83;;;;;;;17.60;61.93;100886.91;10413353;28;20021;-62
2024/04/05 20:36:46;;;;;;;5.83;2.00;;;;;;;17.60;62.17;100886.91;10401757;28;20116;-62
2024/04/05 20:41:46;;;;;;;4.50;1.60;;;;;;;17.59;62.65;100879.94;10395637;28;20026;-63
2024/04/05 20:46:49;;;;;;;3.43;2.10;;;;;;;17.58;61.67;100883.72;10412595;28;20283;-62
2024/04/05 20:51:49;;;;;;;5.68;2.20;;;;;;;17.57;61.93;100899.00;10412388;28;20288;-63
2024/04/05 20:56:54;;;;;;;4.03;1.63;;;;;;;17.56;62.12;100897.41;10412101;28;20461;-62
2024/04/05 21:01:54;;;;;;;2.35;1.63;;;;;;;17.56;61.58;100901.97;10412069;28;20470;-62
2024/04/05 21:06:55;;;;;;;2.70;1.57;;;;;;;17.54;61.41;100911.09;10411922;28;20104;-62
2024/04/05 21:11:55;;;;;;;4.47;1.73;;;;;;;17.53;61.91;100914.88;10393832;28;20379;-62
2024/04/05 21:16:56;;;;;;;2.63;1.95;;;;;;;17.53;61.46;100912.19;10410567;28;20164;-62
2024/04/05 21:21:56;;;;;;;5.30;2.63;;;;;;;17.53;61.91;100895.31;10411725;28;20030;-62
2024/04/05 21:26:57;;;;;;;2.63;1.80;;;;;;;17.53;62.01;100903.34;10393315;28;20272;-62
2024/04/05 21:31:57;;;;;;;3.97;1.43;;;;;;;17.52;61.21;100886.47;10419271;28;20037;-62
2024/04/05 21:36:57;;;;;;;5.03;1.77;;;;;;;17.52;61.64;100873.06;10410631;28;20640;-62
2024/04/05 21:41:58;;;;;;;2.70;1.43;;;;;;;17.52;61.87;100872.22;10410729;28;20356;-63
2024/04/05 21:46:59;;;;;;;3.67;1.58;;;;;;;17.54;61.18;100867.41;10410316;28;20315;-62
2024/04/05 21:51:59;;;;;;;5.40;2.35;;;;;;;17.58;61.52;100878.34;10410382;28;20026;-63
2024/04/05 21:56:59;;;;;;;3.93;1.83;;;;;;;17.58;60.85;100895.25;10409960;28;20373;-63
2024/04/05 22:01:59;;;;;;;4.10;1.63;;;;;;;17.57;61.40;100899.00;10410278;28;20275;-62
2024/04/05 22:07:03;;;;;;;3.10;1.70;;;;;;;17.56;61.72;100907.34;10409703;28;20342;-62
2024/04/05 22:12:04;;;;;;;4.25;1.63;;;;;;;17.54;61.16;100908.41;10408993;28;20371;-62
2024/04/05 22:17:04;;;;;;;3.70;1.63;;;;;;;17.53;61.33;100906.81;10409366;28;20128;-62
2024/04/05 22:22:04;;;;;;;5.37;1.90;;;;;;;17.53;61.16;100914.06;10409064;28;20033;-62
2024/04/05 22:27:05;;;;;;;4.43;1.50;;;;;;;17.53;60.62;100919.44;10408457;28;20292;-62
2024/04/05 22:32:05;;;;;;;4.40;1.60;;;;;;;17.52;61.03;100932.03;10396333;28;20379;-62
2024/04/05 22:37:06;;;;;;;3.92;1.55;;;;;;;17.52;61.04;100945.44;10368335;28;20383;-62
2024/04/05 22:42:07;;;;;;;3.45;1.30;;;;;;;17.51;62.09;100938.47;10367624;28;20690;-63
2024/04/05 22:47:07;;;;;;;4.28;2.15;;;;;;;17.51;62.07;100949.19;10367751;28;20033;-62
2024/04/05 22:52:08;;;;;;;3.47;1.77;;;;;;;17.50;60.79;100958.31;10367675;28;20021;-63
2024/04/05 22:57:08;;;;;;;2.75;1.50;;;;;;;17.54;61.36;100959.38;10367501;28;20125;-63
2024/04/05 23:02:09;;;;;;;3.75;1.58;;;;;;;17.58;61.00;100964.16;10367421;28;20032;-62